createdAt,value
2018-04-17T00:01:35.420Z,4.23
2018-04-17T00:04:02.092Z,3.83
2018-04-17T00:06:28.717Z,4.10
2018-04-17T00:08:55.366Z,3.90
2018-04-17T00:11:21.972Z,3.70
2018-04-17T00:13:48.618Z,4.00
2018-04-17T00:16:15.230Z,3.80
2018-04-17T00:18:41.883Z,3.33
2018-04-17T00:21:08.513Z,3.90
2018-04-17T00:23:35.137Z,3.53
2018-04-17T00:26:01.761Z,3.57
2018-04-17T00:28:28.468Z,3.20
2018-04-17T00:30:55.112Z,3.33
2018-04-17T00:33:21.724Z,3.70
2018-04-17T00:35:48.370Z,4.00
2018-04-17T00:38:14.991Z,4.00
2018-04-17T00:40:41.606Z,3.63
2018-04-17T00:43:08.259Z,3.93
2018-04-17T00:45:34.893Z,3.80
2018-04-17T00:48:01.501Z,3.67
2018-04-17T00:50:28.130Z,3.83
2018-04-17T00:52:54.767Z,3.87
2018-04-17T00:55:21.383Z,3.93
2018-04-17T00:57:48.011Z,3.67
2018-04-17T01:00:14.699Z,4.20
2018-04-17T01:02:41.399Z,3.50
2018-04-17T01:05:08.045Z,3.93
2018-04-17T01:07:34.671Z,3.93
2018-04-17T01:10:01.311Z,3.93
2018-04-17T01:12:27.955Z,4.27
2018-04-17T01:14:54.567Z,4.40
2018-04-17T01:17:22.184Z,4.17
2018-04-17T01:19:50.651Z,3.83
2018-04-17T01:22:17.460Z,4.40
2018-04-17T01:24:44.083Z,3.40
2018-04-17T01:27:10.720Z,4.37
2018-04-17T01:29:37.462Z,3.33
2018-04-17T01:32:04.095Z,4.27
2018-04-17T01:34:30.730Z,3.67
2018-04-17T01:36:57.447Z,3.60
2018-04-17T01:39:24.097Z,4.60
2018-04-17T01:41:50.787Z,3.40
2018-04-17T01:44:17.455Z,3.53
2018-04-17T01:46:44.108Z,4.27
2018-04-17T01:49:10.841Z,3.50
2018-04-17T01:51:37.422Z,3.67
2018-04-17T01:54:04.065Z,3.40
2018-04-17T01:56:31.623Z,3.30
2018-04-17T01:58:58.279Z,3.40
2018-04-17T02:01:24.891Z,4.20
2018-04-17T02:03:51.580Z,3.97
2018-04-17T02:06:18.222Z,4.17
2018-04-17T02:08:44.957Z,4.30
2018-04-17T02:11:11.594Z,4.13
2018-04-17T02:13:38.245Z,4.40
2018-04-17T02:16:04.869Z,4.30
2018-04-17T02:18:31.767Z,4.70
2018-04-17T02:20:58.415Z,4.20
2018-04-17T02:23:25.068Z,4.77
2018-04-17T02:25:51.714Z,4.20
2018-04-17T02:28:18.432Z,4.50
2018-04-17T02:30:45.114Z,4.10
2018-04-17T02:33:11.752Z,4.20
2018-04-17T02:35:38.399Z,4.13
2018-04-17T02:38:05.048Z,4.73
2018-04-17T02:40:31.708Z,4.20
2018-04-17T02:42:59.357Z,3.80
2018-04-17T02:45:25.992Z,3.80
2018-04-17T02:47:52.644Z,4.30
2018-04-17T02:50:19.301Z,4.10
2018-04-17T02:52:45.989Z,4.23
2018-04-17T02:55:12.612Z,4.27
2018-04-17T02:57:39.269Z,3.73
2018-04-17T03:00:05.905Z,4.10
2018-04-17T03:02:32.549Z,3.83
2018-04-17T03:04:59.195Z,3.40
2018-04-17T03:07:25.915Z,4.03
2018-04-17T03:09:52.614Z,4.20
2018-04-17T03:12:19.271Z,4.20
2018-04-17T03:14:45.889Z,3.93
2018-04-17T03:17:12.522Z,4.70
2018-04-17T03:19:39.143Z,4.57
2018-04-17T03:22:05.844Z,4.63
2018-04-17T03:24:32.534Z,4.20
2018-04-17T03:26:59.324Z,4.40
2018-04-17T03:29:25.951Z,4.30
2018-04-17T03:31:52.636Z,4.00
2018-04-17T03:34:19.316Z,4.27
2018-04-17T03:36:45.967Z,4.60
2018-04-17T03:39:12.566Z,4.13
2018-04-17T03:41:39.246Z,4.00
2018-04-17T03:44:05.878Z,4.60
2018-04-17T03:46:32.607Z,4.13
2018-04-17T03:48:59.319Z,4.00
2018-04-17T03:51:25.981Z,4.20
2018-04-17T03:53:52.667Z,4.00
2018-04-17T03:56:19.392Z,4.10
2018-04-17T03:58:46.050Z,3.70
2018-04-17T04:01:12.698Z,3.80
2018-04-17T04:03:39.388Z,4.30
2018-04-17T04:06:06.040Z,4.43
2018-04-17T04:08:32.673Z,3.90
2018-04-17T04:10:59.911Z,4.33
2018-04-17T04:13:26.583Z,4.83
2018-04-17T04:15:53.307Z,4.33
2018-04-17T04:18:25.821Z,4.10
2018-04-17T04:20:58.234Z,4.30
2018-04-17T04:23:30.752Z,4.90
2018-04-17T04:26:03.154Z,4.07
2018-04-17T04:28:29.896Z,4.57
2018-04-17T04:30:57.369Z,4.87
2018-04-17T04:33:24.005Z,4.70
2018-04-17T04:35:50.763Z,5.80
2018-04-17T04:38:17.437Z,4.30
2018-04-17T04:40:44.073Z,5.00
2018-04-17T04:43:10.713Z,5.33
2018-04-17T04:45:37.365Z,4.93
2018-04-17T04:48:04.850Z,4.70
2018-04-17T04:50:31.508Z,4.37
2018-04-17T04:52:58.107Z,4.60
2018-04-17T04:55:24.787Z,4.50
2018-04-17T04:57:51.452Z,4.37
2018-04-17T05:00:18.133Z,4.60
2018-04-17T05:02:46.438Z,4.20
2018-04-17T05:05:13.158Z,4.23
2018-04-17T05:07:39.830Z,4.17
2018-04-17T05:10:07.467Z,3.53
2018-04-17T05:12:34.117Z,3.70
2018-04-17T05:15:00.739Z,4.23
2018-04-17T05:17:27.382Z,4.37
2018-04-17T05:19:54.071Z,4.20
2018-04-17T05:22:20.846Z,4.80
2018-04-17T05:24:47.464Z,4.53
2018-04-17T05:27:14.111Z,4.80
2018-04-17T05:29:40.736Z,5.33
2018-04-17T05:32:08.129Z,5.50
2018-04-17T05:34:34.765Z,5.00
2018-04-17T05:37:01.394Z,5.40
2018-04-17T05:39:28.062Z,5.20
2018-04-17T05:41:54.693Z,5.20
2018-04-17T05:44:21.555Z,5.63
2018-04-17T05:46:48.194Z,4.90
2018-04-17T05:49:14.916Z,4.90
2018-04-17T05:51:41.543Z,4.83
2018-04-17T05:54:08.161Z,4.20
2018-04-17T05:56:34.813Z,4.43
2018-04-17T05:59:01.507Z,4.37
2018-04-17T06:01:28.172Z,4.33
2018-04-17T06:03:54.815Z,4.23
2018-04-17T06:06:21.508Z,4.17
2018-04-17T06:08:48.146Z,3.70
2018-04-17T06:11:14.784Z,3.53
2018-04-17T06:13:41.449Z,4.10
2018-04-17T06:16:08.212Z,4.10
2018-04-17T06:18:34.875Z,4.40
2018-04-17T06:21:01.938Z,4.17
2018-04-17T06:23:28.627Z,3.80
2018-04-17T06:25:55.306Z,4.33
2018-04-17T06:28:21.919Z,3.60
2018-04-17T06:30:48.565Z,4.00
2018-04-17T06:33:15.278Z,3.47
2018-04-17T06:35:41.956Z,3.63
2018-04-17T06:38:08.605Z,2.90
2018-04-17T06:40:35.233Z,3.03
2018-04-17T06:43:01.893Z,4.43
2018-04-17T06:45:28.513Z,4.10
2018-04-17T06:47:55.136Z,3.60
2018-04-17T06:50:21.784Z,3.43
2018-04-17T06:52:48.445Z,3.77
2018-04-17T06:55:15.103Z,4.20
2018-04-17T06:57:41.761Z,4.00
2018-04-17T07:00:08.410Z,4.10
2018-04-17T07:02:35.052Z,3.40
2018-04-17T07:05:01.672Z,4.10
2018-04-17T07:07:28.319Z,2.93
2018-04-17T07:09:54.968Z,3.23
2018-04-17T07:12:21.613Z,3.10
2018-04-17T07:14:48.259Z,3.20
2018-04-17T07:17:14.897Z,4.30
2018-04-17T07:19:42.321Z,4.27
2018-04-17T07:22:08.970Z,4.03
2018-04-17T07:24:35.619Z,4.63
2018-04-17T07:27:02.240Z,5.10
2018-04-17T07:29:28.925Z,5.13
2018-04-17T07:31:55.528Z,4.17
2018-04-17T07:34:22.173Z,6.10
2018-04-17T07:36:48.802Z,3.63
2018-04-17T07:39:15.442Z,5.63
2018-04-17T07:41:42.075Z,5.20
2018-04-17T07:44:08.695Z,6.20
2018-04-17T07:46:35.350Z,5.83
2018-04-17T07:49:04.878Z,5.40
2018-04-17T07:51:31.504Z,5.90
2018-04-17T07:53:58.157Z,5.53
2018-04-17T07:56:24.801Z,5.80
2018-04-17T07:58:51.435Z,5.87
2018-04-17T08:01:18.088Z,6.37
2018-04-17T08:03:44.720Z,6.53
2018-04-17T08:06:11.574Z,5.63
2018-04-17T08:08:38.227Z,6.80
2018-04-17T08:11:04.849Z,7.60
2018-04-17T08:13:31.560Z,7.80
2018-04-17T08:15:58.205Z,7.80
2018-04-17T08:18:24.827Z,7.23
2018-04-17T08:20:51.490Z,6.30
2018-04-17T08:23:18.104Z,5.50
2018-04-17T08:25:45.331Z,6.10
2018-04-17T08:28:12.011Z,6.50
2018-04-17T08:30:38.701Z,7.00
2018-04-17T08:33:05.360Z,7.50
2018-04-17T08:35:31.999Z,6.40
2018-04-17T08:37:58.634Z,6.57
2018-04-17T08:40:25.287Z,7.73
2018-04-17T08:42:52.009Z,7.50
2018-04-17T08:45:18.627Z,7.57
2018-04-17T08:47:45.342Z,7.40
2018-04-17T08:50:12.061Z,7.50
2018-04-17T08:52:38.752Z,7.80
2018-04-17T08:55:05.389Z,8.23
2018-04-17T08:57:32.018Z,7.27
2018-04-17T08:59:58.670Z,7.37
2018-04-17T09:02:25.344Z,7.53
2018-04-17T09:04:51.954Z,7.00
2018-04-17T09:07:18.725Z,6.20
2018-04-17T09:09:45.351Z,6.07
2018-04-17T09:12:12.014Z,7.03
2018-04-17T09:14:39.299Z,6.67
2018-04-17T09:17:06.000Z,6.03
2018-04-17T09:19:32.633Z,6.10
2018-04-17T09:21:59.301Z,5.27
2018-04-17T09:24:25.955Z,6.90
2018-04-17T09:26:52.627Z,6.30
2018-04-17T09:29:19.266Z,7.00
2018-04-17T09:31:46.039Z,5.40
2018-04-17T09:34:12.714Z,6.40
2018-04-17T09:36:39.358Z,6.50
2018-04-17T09:39:05.996Z,5.60
2018-04-17T09:41:32.648Z,6.63
2018-04-17T09:43:59.318Z,6.83
2018-04-17T09:46:25.955Z,6.80
2018-04-17T09:48:52.667Z,10.67
2018-04-17T09:51:19.323Z,7.27
2018-04-17T09:53:45.985Z,6.20
2018-04-17T09:56:12.617Z,6.47
2018-04-17T09:58:39.257Z,5.30
2018-04-17T10:01:11.667Z,6.60
2018-04-17T10:03:38.419Z,6.77
2018-04-17T10:06:05.096Z,5.37
2018-04-17T10:08:31.728Z,5.30
2018-04-17T10:10:58.389Z,6.10
2018-04-17T10:13:25.203Z,4.37
2018-04-17T10:15:51.902Z,5.90
2018-04-17T10:18:18.687Z,6.50
2018-04-17T10:20:45.405Z,6.47
2018-04-17T10:23:12.195Z,6.40
2018-04-17T10:25:39.720Z,7.00
2018-04-17T10:28:06.498Z,6.60
2018-04-17T10:30:33.415Z,6.30
2018-04-17T10:33:00.208Z,6.50
2018-04-17T10:35:26.907Z,6.33
2018-04-17T10:37:53.658Z,6.73
2018-04-17T10:40:20.315Z,6.97
2018-04-17T10:42:47.030Z,5.93
2018-04-17T10:45:13.699Z,6.30
2018-04-17T10:47:40.352Z,5.27
2018-04-17T10:50:07.078Z,5.97
2018-04-17T10:52:33.809Z,5.80
2018-04-17T10:55:00.596Z,5.80
2018-04-17T10:57:27.234Z,5.90
2018-04-17T10:59:53.884Z,5.20
2018-04-17T11:02:20.574Z,5.03
2018-04-17T11:04:47.252Z,5.13
2018-04-17T11:07:13.934Z,4.50
2018-04-17T11:09:40.615Z,5.00
2018-04-17T11:12:10.091Z,4.00
2018-04-17T11:14:36.975Z,4.40
2018-04-17T11:17:03.592Z,5.13
2018-04-17T11:19:30.241Z,4.90
2018-04-17T11:21:56.887Z,5.13
2018-04-17T11:24:23.633Z,4.73
2018-04-17T11:26:50.273Z,4.60
2018-04-17T11:29:17.282Z,4.00
2018-04-17T11:31:44.641Z,3.80
2018-04-17T11:34:11.399Z,3.77
2018-04-17T11:36:38.082Z,2.97
2018-04-17T11:39:09.650Z,3.00
2018-04-17T11:41:36.276Z,3.50
2018-04-17T11:44:04.461Z,3.70
2018-04-17T11:46:33.777Z,4.00
2018-04-17T11:49:00.685Z,3.60
2018-04-17T11:51:27.350Z,3.83
2018-04-17T11:53:53.991Z,4.30
2018-04-17T11:56:20.661Z,3.20
2018-04-17T11:58:47.279Z,4.67
2018-04-17T12:01:17.431Z,4.70
2018-04-17T12:03:46.273Z,4.10
2018-04-17T12:06:15.638Z,3.50
2018-04-17T12:08:42.650Z,3.57
2018-04-17T12:11:09.287Z,3.77
2018-04-17T12:13:35.944Z,3.50
2018-04-17T12:16:02.619Z,4.67
2018-04-17T12:18:29.278Z,3.67
2018-04-17T12:20:55.895Z,4.33
2018-04-17T12:23:22.524Z,3.87
2018-04-17T12:25:49.180Z,2.93
2018-04-17T12:28:16.053Z,3.37
2018-04-17T12:30:42.812Z,4.20
2018-04-17T12:33:09.443Z,3.60
2018-04-17T12:35:36.458Z,3.67
2018-04-17T12:38:03.123Z,3.30
2018-04-17T12:40:29.771Z,3.70
2018-04-17T12:42:56.439Z,3.60
2018-04-17T12:45:23.065Z,3.30
2018-04-17T12:47:49.696Z,3.63
2018-04-17T12:50:16.315Z,2.80
2018-04-17T12:52:42.950Z,2.97
2018-04-17T12:55:09.578Z,3.67
2018-04-17T12:57:36.213Z,3.40
2018-04-17T13:00:02.889Z,4.10
2018-04-17T13:02:29.502Z,3.53
2018-04-17T13:04:56.186Z,4.37
2018-04-17T13:07:22.796Z,3.97
2018-04-17T13:09:49.446Z,3.60
2018-04-17T13:12:16.099Z,2.90
2018-04-17T13:14:42.731Z,3.00
2018-04-17T13:17:09.370Z,2.77
2018-04-17T13:19:35.989Z,2.80
2018-04-17T13:22:02.618Z,3.10
2018-04-17T13:24:30.002Z,2.97
2018-04-17T13:26:56.686Z,3.40
2018-04-17T13:29:23.360Z,3.30
2018-04-17T13:31:50.062Z,3.10
2018-04-17T13:34:16.697Z,4.43
2018-04-17T13:36:43.361Z,3.90
2018-04-17T13:39:10.010Z,4.23
2018-04-17T13:41:36.645Z,3.40
2018-04-17T13:44:03.287Z,4.10
2018-04-17T13:46:29.914Z,3.33
2018-04-17T13:48:56.642Z,3.97
2018-04-17T13:51:23.265Z,3.10
2018-04-17T13:53:49.911Z,3.13
2018-04-17T13:56:16.561Z,3.80
2018-04-17T13:58:43.190Z,3.70
2018-04-17T14:01:09.832Z,3.20
2018-04-17T14:03:36.619Z,3.87
2018-04-17T14:06:03.233Z,3.17
2018-04-17T14:08:29.871Z,3.53
2018-04-17T14:10:56.523Z,2.97
2018-04-17T14:13:23.139Z,3.10
2018-04-17T14:15:49.770Z,3.47
2018-04-17T14:18:16.403Z,3.13
2018-04-17T14:20:43.012Z,3.10
2018-04-17T14:23:09.669Z,2.90
2018-04-17T14:25:36.326Z,3.13
2018-04-17T14:28:02.934Z,3.03
2018-04-17T14:30:29.565Z,3.07
2018-04-17T14:32:56.224Z,2.67
2018-04-17T14:35:22.864Z,2.90
2018-04-17T14:37:49.520Z,3.03
2018-04-17T14:40:16.190Z,2.53
2018-04-17T14:42:42.827Z,3.03
2018-04-17T14:45:09.461Z,2.97
2018-04-17T14:47:36.083Z,3.20
2018-04-17T14:50:02.703Z,3.70
2018-04-17T14:52:29.346Z,3.10
2018-04-17T14:54:56.823Z,2.70
2018-04-17T14:57:23.483Z,3.07
2018-04-17T14:59:50.172Z,3.20
2018-04-17T15:02:16.822Z,2.90
2018-04-17T15:04:43.493Z,2.23
2018-04-17T15:07:10.181Z,2.60
2018-04-17T15:09:36.820Z,2.27
2018-04-17T15:12:03.452Z,3.33
2018-04-17T15:14:30.182Z,3.50
2018-04-17T15:16:56.861Z,3.47
2018-04-17T15:19:23.564Z,3.10
2018-04-17T15:21:50.309Z,3.50
2018-04-17T15:24:16.990Z,2.97
2018-04-17T15:26:43.647Z,2.60
2018-04-17T15:29:10.378Z,2.83
2018-04-17T15:31:37.037Z,3.13
2018-04-17T15:34:03.755Z,3.37
2018-04-17T15:36:30.459Z,2.90
2018-04-17T15:38:57.173Z,3.10
2018-04-17T15:41:23.875Z,3.00
2018-04-17T15:43:50.533Z,3.07
2018-04-17T15:46:17.161Z,2.87
2018-04-17T15:48:44.293Z,3.40
2018-04-17T15:51:10.999Z,3.50
2018-04-17T15:53:37.685Z,3.97
2018-04-17T15:56:04.350Z,3.43
2018-04-17T15:58:31.262Z,3.13
2018-04-17T16:00:58.018Z,2.97
2018-04-17T16:03:24.718Z,2.77
2018-04-17T16:05:51.553Z,3.10
2018-04-17T16:08:18.201Z,3.30
2018-04-17T16:10:44.853Z,3.03
2018-04-17T16:13:11.560Z,3.03
2018-04-17T16:15:38.134Z,3.27
2018-04-17T16:18:04.815Z,3.00
2018-04-17T16:20:31.546Z,3.00
2018-04-17T16:22:58.259Z,2.90
2018-04-17T16:25:24.971Z,2.83
2018-04-17T16:27:51.589Z,3.13
2018-04-17T16:30:18.263Z,3.37
2018-04-17T16:32:44.914Z,3.50
2018-04-17T16:35:11.667Z,3.73
2018-04-17T16:37:38.343Z,3.30
2018-04-17T16:40:05.072Z,3.87
2018-04-17T16:42:31.738Z,3.47
2018-04-17T16:44:58.466Z,3.20
2018-04-17T16:47:25.116Z,3.53
2018-04-17T16:49:51.780Z,3.57
2018-04-17T16:52:18.476Z,3.50
2018-04-17T16:54:45.218Z,3.23
2018-04-17T16:57:12.826Z,3.53
2018-04-17T16:59:39.490Z,3.00
2018-04-17T17:02:06.403Z,3.40
2018-04-17T17:04:33.290Z,3.10
2018-04-17T17:07:00.025Z,2.80
2018-04-17T17:09:26.763Z,3.40
2018-04-17T17:11:53.502Z,3.13
2018-04-17T17:14:20.227Z,3.10
2018-04-17T17:16:46.929Z,3.20
2018-04-17T17:19:13.653Z,3.10
2018-04-17T17:21:40.461Z,3.60
2018-04-17T17:24:07.132Z,3.10
2018-04-17T17:26:33.869Z,3.17
2018-04-17T17:29:00.733Z,2.60
2018-04-17T17:31:28.272Z,3.33
2018-04-17T17:33:55.056Z,3.10
2018-04-17T17:36:22.490Z,3.77
2018-04-17T17:38:49.205Z,3.20
2018-04-17T17:41:15.883Z,2.80
2018-04-17T17:43:42.506Z,3.20
2018-04-17T17:46:09.207Z,3.03
2018-04-17T17:48:35.911Z,2.93
2018-04-17T17:51:02.592Z,3.40
2018-04-17T17:53:29.612Z,3.60
2018-04-17T17:56:09.553Z,3.10
2018-04-17T17:58:36.195Z,2.93
2018-04-17T18:01:03.516Z,3.70
2018-04-17T18:03:30.177Z,3.30
2018-04-17T18:05:56.889Z,2.87
2018-04-17T18:08:23.536Z,3.10
2018-04-17T18:10:50.206Z,3.37
2018-04-17T18:13:17.625Z,3.80
2018-04-17T18:15:50.967Z,2.77
2018-04-17T18:18:17.741Z,3.03
2018-04-17T18:20:44.418Z,3.10
2018-04-17T18:23:11.047Z,3.07
2018-04-17T18:25:37.705Z,2.87
2018-04-17T18:28:04.377Z,3.03
2018-04-17T18:30:31.672Z,2.93
2018-04-17T18:32:58.346Z,2.63
2018-04-17T18:35:24.994Z,2.47
2018-04-17T18:37:51.628Z,3.20
2018-04-17T18:40:18.276Z,3.20
2018-04-17T18:42:45.225Z,3.93
2018-04-17T18:45:13.287Z,3.00
2018-04-17T18:47:39.995Z,2.87
2018-04-17T18:50:06.642Z,2.90
2018-04-17T18:52:33.296Z,3.70
2018-04-17T18:54:59.991Z,3.43
2018-04-17T18:57:26.663Z,3.50
2018-04-17T18:59:53.315Z,3.73
2018-04-17T19:02:20.024Z,3.70
2018-04-17T19:04:46.659Z,3.57
2018-04-17T19:07:13.395Z,3.50
2018-04-17T19:09:40.040Z,4.30
2018-04-17T19:12:07.160Z,3.20
2018-04-17T19:14:33.791Z,3.97
2018-04-17T19:17:00.461Z,4.33
2018-04-17T19:19:27.100Z,3.80
2018-04-17T19:21:53.786Z,4.13
2018-04-17T19:24:20.413Z,4.13
2018-04-17T19:26:47.499Z,4.30
2018-04-17T19:29:14.126Z,4.40
2018-04-17T19:31:40.775Z,4.17
2018-04-17T19:34:07.398Z,5.30
2018-04-17T19:36:34.194Z,4.70
2018-04-17T19:39:00.808Z,5.77
2018-04-17T19:41:27.556Z,4.93
2018-04-17T19:43:54.272Z,5.63
2018-04-17T19:46:20.955Z,5.40
2018-04-17T19:48:47.589Z,5.83
2018-04-17T19:51:14.234Z,5.33
2018-04-17T19:53:40.893Z,6.27
2018-04-17T19:56:07.533Z,5.47
2018-04-17T19:58:34.204Z,4.60
2018-04-17T20:01:00.900Z,4.27
2018-04-17T20:03:27.591Z,4.37
2018-04-17T20:05:54.220Z,5.20
2018-04-17T20:08:20.898Z,5.13
2018-04-17T20:10:47.603Z,4.30
2018-04-17T20:13:14.353Z,4.87
2018-04-17T20:15:41.128Z,4.73
2018-04-17T20:18:07.872Z,4.40
2018-04-17T20:20:34.760Z,3.87
2018-04-17T20:23:01.561Z,4.17
2018-04-17T20:25:28.252Z,3.80
2018-04-17T20:27:54.955Z,4.20
2018-04-17T20:30:22.215Z,3.57
2018-04-17T20:32:48.876Z,3.60
2018-04-17T20:35:15.553Z,3.80
2018-04-17T20:37:42.235Z,3.70
2018-04-17T20:40:08.921Z,4.10
2018-04-17T20:42:35.606Z,4.07
2018-04-17T20:45:02.307Z,4.33
2018-04-17T20:47:28.963Z,4.17
2018-04-17T20:49:56.044Z,4.13
2018-04-17T20:52:22.737Z,4.37
2018-04-17T20:54:49.404Z,4.10
2018-04-17T20:57:16.040Z,3.60
2018-04-17T20:59:42.675Z,3.43
2018-04-17T21:02:09.283Z,3.90
2018-04-17T21:04:36.099Z,3.90
2018-04-17T21:07:02.747Z,4.00
2018-04-17T21:09:29.469Z,3.63
2018-04-17T21:11:56.252Z,4.10
2018-04-17T21:14:22.996Z,3.53
2018-04-17T21:16:49.750Z,3.63
2018-04-17T21:19:16.415Z,3.90
2018-04-17T21:21:43.141Z,4.40
2018-04-17T21:24:09.792Z,4.17
2018-04-17T21:26:36.463Z,4.47
2018-04-17T21:29:03.167Z,4.10
2018-04-17T21:31:29.839Z,4.27
2018-04-17T21:33:56.790Z,4.00
2018-04-17T21:36:23.462Z,4.77
2018-04-17T21:38:50.113Z,3.73
2018-04-17T21:41:16.748Z,4.97
2018-04-17T21:43:43.482Z,4.63
2018-04-17T21:46:10.263Z,4.77
2018-04-17T21:48:36.876Z,4.60
2018-04-17T21:51:03.509Z,4.40
2018-04-17T21:53:30.186Z,4.93
2018-04-17T21:55:56.879Z,4.67
2018-04-17T21:58:23.543Z,4.83
2018-04-17T22:00:50.388Z,4.80
2018-04-17T22:03:17.037Z,5.40
2018-04-17T22:05:43.841Z,4.93
2018-04-17T22:08:10.530Z,4.93
2018-04-17T22:10:37.894Z,5.97
2018-04-17T22:13:04.503Z,5.00
2018-04-17T22:15:31.147Z,4.40
2018-04-17T22:17:57.825Z,4.50
2018-04-17T22:20:24.573Z,4.83
2018-04-17T22:22:51.535Z,5.47
2018-04-17T22:25:18.212Z,4.97
2018-04-17T22:27:44.857Z,4.80
2018-04-17T22:30:11.552Z,4.90
2018-04-17T22:32:38.186Z,4.93
2018-04-17T22:35:04.845Z,4.67
2018-04-17T22:37:31.941Z,4.00
2018-04-17T22:39:58.613Z,5.40
2018-04-17T22:42:25.238Z,4.47
2018-04-17T22:44:51.918Z,4.50
2018-04-17T22:47:18.819Z,4.40
2018-04-17T22:49:45.447Z,4.83
2018-04-17T22:52:12.120Z,4.23
2018-04-17T22:54:38.768Z,4.63
2018-04-17T22:57:05.460Z,4.70
2018-04-17T22:59:32.793Z,4.47
2018-04-17T23:01:59.453Z,4.60
2018-04-17T23:04:26.065Z,4.83
2018-04-17T23:06:52.728Z,4.00
2018-04-17T23:09:19.467Z,4.33
2018-04-17T23:11:46.158Z,4.43
2018-04-17T23:14:12.806Z,4.50
2018-04-17T23:16:40.083Z,4.60
2018-04-17T23:19:06.697Z,4.60
2018-04-17T23:21:33.365Z,4.30
2018-04-17T23:24:00.002Z,4.63
2018-04-17T23:26:26.622Z,4.23
2018-04-17T23:28:53.380Z,4.47
2018-04-17T23:31:20.768Z,4.80
2018-04-17T23:33:47.407Z,4.97
2018-04-17T23:36:14.081Z,4.07
2018-04-17T23:38:40.718Z,4.60
2018-04-17T23:41:07.467Z,4.83
2018-04-17T23:43:34.280Z,4.40
2018-04-17T23:46:00.929Z,4.77
2018-04-17T23:48:27.589Z,4.27
2018-04-17T23:50:54.248Z,4.87
2018-04-17T23:53:21.265Z,5.20
2018-04-17T23:55:48.135Z,4.73
2018-04-17T23:58:14.760Z,4.80
